sensor_id;sensor_type;location;lat;lon;timestamp;P1;durP1;ratioP1;P2;durP2;ratioP2
41333;SDS011;27078;46.428;6.256;2023-11-21T00:01:50;1.85;;;0.30;;
41333;SDS011;27078;46.428;6.256;2023-11-21T00:04:15;2.00;;;0.30;;
41333;SDS011;27078;46.428;6.256;2023-11-21T00:06:40;2.22;;;0.20;;
41333;SDS011;27078;46.428;6.256;2023-11-21T00:09:06;1.65;;;0.30;;
41333;SDS011;27078;46.428;6.256;2023-11-21T00:11:33;2.10;;;0.30;;
41333;SDS011;27078;46.428;6.256;2023-11-21T00:13:59;1.88;;;0.20;;
41333;SDS011;27078;46.428;6.256;2023-11-21T00:16:27;3.80;;;0.40;;
41333;SDS011;27078;46.428;6.256;2023-11-21T00:18:52;3.95;;;0.32;;
41333;SDS011;27078;46.428;6.256;2023-11-21T00:21:17;2.80;;;0.35;;
41333;SDS011;27078;46.428;6.256;2023-11-21T00:23:43;5.22;;;0.70;;
41333;SDS011;27078;46.428;6.256;2023-11-21T00:26:08;5.10;;;0.47;;
41333;SDS011;27078;46.428;6.256;2023-11-21T00:28:33;4.93;;;0.50;;
41333;SDS011;27078;46.428;6.256;2023-11-21T00:30:59;3.88;;;0.30;;
41333;SDS011;27078;46.428;6.256;2023-11-21T00:33:24;2.42;;;0.20;;
41333;SDS011;27078;46.428;6.256;2023-11-21T00:35:50;3.05;;;0.30;;
41333;SDS011;27078;46.428;6.256;2023-11-21T00:38:15;2.42;;;0.40;;
41333;SDS011;27078;46.428;6.256;2023-11-21T00:40:44;3.85;;;0.35;;
41333;SDS011;27078;46.428;6.256;2023-11-21T00:43:10;1.98;;;0.40;;
41333;SDS011;27078;46.428;6.256;2023-11-21T00:45:35;1.83;;;0.30;;
41333;SDS011;27078;46.428;6.256;2023-11-21T00:48:01;5.55;;;0.70;;
41333;SDS011;27078;46.428;6.256;2023-11-21T00:50:27;1.73;;;0.30;;
41333;SDS011;27078;46.428;6.256;2023-11-21T00:52:52;3.05;;;0.35;;
41333;SDS011;27078;46.428;6.256;2023-11-21T00:55:18;3.38;;;0.47;;
41333;SDS011;27078;46.428;6.256;2023-11-21T00:57:43;2.80;;;0.38;;
41333;SDS011;27078;46.428;6.256;2023-11-21T01:00:09;4.93;;;0.60;;
41333;SDS011;27078;46.428;6.256;2023-11-21T01:02:42;2.00;;;0.30;;
41333;SDS011;27078;46.428;6.256;2023-11-21T01:05:09;3.38;;;0.43;;
41333;SDS011;27078;46.428;6.256;2023-11-21T01:07:35;4.13;;;0.55;;
41333;SDS011;27078;46.428;6.256;2023-11-21T01:10:02;3.25;;;0.52;;
41333;SDS011;27078;46.428;6.256;2023-11-21T01:12:30;1.85;;;0.40;;
41333;SDS011;27078;46.428;6.256;2023-11-21T01:14:56;3.95;;;0.50;;
41333;SDS011;27078;46.428;6.256;2023-11-21T01:17:25;1.60;;;0.50;;
41333;SDS011;27078;46.428;6.256;2023-11-21T01:19:50;2.05;;;0.40;;
41333;SDS011;27078;46.428;6.256;2023-11-21T01:22:15;1.98;;;0.40;;
41333;SDS011;27078;46.428;6.256;2023-11-21T01:24:41;3.97;;;0.70;;
41333;SDS011;27078;46.428;6.256;2023-11-21T01:27:06;3.08;;;0.43;;
41333;SDS011;27078;46.428;6.256;2023-11-21T01:29:32;2.15;;;0.50;;
41333;SDS011;27078;46.428;6.256;2023-11-21T01:31:57;5.60;;;0.50;;
41333;SDS011;27078;46.428;6.256;2023-11-21T01:34:22;3.75;;;0.57;;
41333;SDS011;27078;46.428;6.256;2023-11-21T01:36:48;2.67;;;0.40;;
41333;SDS011;27078;46.428;6.256;2023-11-21T01:39:13;3.58;;;0.65;;
41333;SDS011;27078;46.428;6.256;2023-11-21T01:41:40;3.42;;;0.40;;
41333;SDS011;27078;46.428;6.256;2023-11-21T01:44:08;3.40;;;0.40;;
41333;SDS011;27078;46.428;6.256;2023-11-21T01:46:34;3.30;;;0.63;;
41333;SDS011;27078;46.428;6.256;2023-11-21T01:49:00;2.53;;;0.52;;
41333;SDS011;27078;46.428;6.256;2023-11-21T01:51:26;6.65;;;0.63;;
41333;SDS011;27078;46.428;6.256;2023-11-21T01:53:51;5.28;;;0.70;;
41333;SDS011;27078;46.428;6.256;2023-11-21T01:56:17;2.78;;;0.70;;
41333;SDS011;27078;46.428;6.256;2023-11-21T01:58:43;2.97;;;0.47;;
41333;SDS011;27078;46.428;6.256;2023-11-21T02:01:09;4.25;;;0.60;;
41333;SDS011;27078;46.428;6.256;2023-11-21T02:03:35;3.30;;;0.40;;
41333;SDS011;27078;46.428;6.256;2023-11-21T02:06:00;2.97;;;0.30;;
41333;SDS011;27078;46.428;6.256;2023-11-21T02:08:26;3.58;;;0.45;;
41333;SDS011;27078;46.428;6.256;2023-11-21T02:10:52;4.15;;;0.47;;
41333;SDS011;27078;46.428;6.256;2023-11-21T02:13:17;3.05;;;0.60;;
41333;SDS011;27078;46.428;6.256;2023-11-21T02:15:42;4.47;;;0.50;;
41333;SDS011;27078;46.428;6.256;2023-11-21T02:18:08;2.83;;;0.50;;
41333;SDS011;27078;46.428;6.256;2023-11-21T02:20:36;3.55;;;0.68;;
41333;SDS011;27078;46.428;6.256;2023-11-21T02:23:03;2.28;;;0.35;;
41333;SDS011;27078;46.428;6.256;2023-11-21T02:25:30;3.28;;;0.43;;
41333;SDS011;27078;46.428;6.256;2023-11-21T02:27:58;2.67;;;0.60;;
41333;SDS011;27078;46.428;6.256;2023-11-21T02:30:25;2.38;;;0.47;;
41333;SDS011;27078;46.428;6.256;2023-11-21T02:32:51;2.38;;;0.50;;
41333;SDS011;27078;46.428;6.256;2023-11-21T02:35:19;3.50;;;0.57;;
41333;SDS011;27078;46.428;6.256;2023-11-21T02:37:48;2.20;;;0.50;;
41333;SDS011;27078;46.428;6.256;2023-11-21T02:40:14;3.28;;;0.70;;
41333;SDS011;27078;46.428;6.256;2023-11-21T02:42:45;4.03;;;0.88;;
41333;SDS011;27078;46.428;6.256;2023-11-21T02:45:15;3.80;;;0.80;;
41333;SDS011;27078;46.428;6.256;2023-11-21T02:47:42;5.88;;;0.70;;
41333;SDS011;27078;46.428;6.256;2023-11-21T02:50:08;1.73;;;0.50;;
41333;SDS011;27078;46.428;6.256;2023-11-21T02:52:34;5.13;;;0.80;;
41333;SDS011;27078;46.428;6.256;2023-11-21T02:55:03;4.10;;;0.75;;
41333;SDS011;27078;46.428;6.256;2023-11-21T02:57:29;3.97;;;0.60;;
41333;SDS011;27078;46.428;6.256;2023-11-21T02:59:55;1.98;;;0.63;;
41333;SDS011;27078;46.428;6.256;2023-11-21T03:02:20;1.73;;;0.50;;
41333;SDS011;27078;46.428;6.256;2023-11-21T03:04:47;4.18;;;0.60;;
41333;SDS011;27078;46.428;6.256;2023-11-21T03:07:14;3.60;;;0.60;;
41333;SDS011;27078;46.428;6.256;2023-11-21T03:09:39;3.70;;;0.70;;
41333;SDS011;27078;46.428;6.256;2023-11-21T03:12:05;4.82;;;0.50;;
41333;SDS011;27078;46.428;6.256;2023-11-21T03:14:30;5.53;;;0.70;;
41333;SDS011;27078;46.428;6.256;2023-11-21T03:16:56;4.30;;;0.75;;
41333;SDS011;27078;46.428;6.256;2023-11-21T03:19:22;2.92;;;0.45;;
41333;SDS011;27078;46.428;6.256;2023-11-21T03:21:47;3.88;;;0.70;;
41333;SDS011;27078;46.428;6.256;2023-11-21T03:24:12;4.60;;;0.65;;
41333;SDS011;27078;46.428;6.256;2023-11-21T03:26:38;6.03;;;0.75;;
41333;SDS011;27078;46.428;6.256;2023-11-21T03:29:03;4.25;;;0.40;;
41333;SDS011;27078;46.428;6.256;2023-11-21T03:31:29;2.67;;;0.50;;
41333;SDS011;27078;46.428;6.256;2023-11-21T03:33:55;7.20;;;0.60;;
41333;SDS011;27078;46.428;6.256;2023-11-21T03:36:20;3.75;;;0.50;;
41333;SDS011;27078;46.428;6.256;2023-11-21T03:38:47;4.45;;;0.60;;
41333;SDS011;27078;46.428;6.256;2023-11-21T03:41:13;5.13;;;0.70;;
41333;SDS011;27078;46.428;6.256;2023-11-21T03:43:39;4.53;;;0.70;;
41333;SDS011;27078;46.428;6.256;2023-11-21T03:46:05;3.55;;;0.65;;
41333;SDS011;27078;46.428;6.256;2023-11-21T03:48:31;3.42;;;0.70;;
41333;SDS011;27078;46.428;6.256;2023-11-21T03:50:58;3.85;;;0.60;;
41333;SDS011;27078;46.428;6.256;2023-11-21T03:53:23;5.07;;;0.77;;
41333;SDS011;27078;46.428;6.256;2023-11-21T03:55:48;4.45;;;0.43;;
41333;SDS011;27078;46.428;6.256;2023-11-21T03:58:15;2.80;;;0.68;;
41333;SDS011;27078;46.428;6.256;2023-11-21T04:00:40;3.75;;;0.63;;
41333;SDS011;27078;46.428;6.256;2023-11-21T04:03:05;4.15;;;0.50;;
41333;SDS011;27078;46.428;6.256;2023-11-21T04:05:31;5.05;;;0.60;;
41333;SDS011;27078;46.428;6.256;2023-11-21T04:07:56;5.75;;;0.93;;
41333;SDS011;27078;46.428;6.256;2023-11-21T04:10:21;3.35;;;0.73;;
41333;SDS011;27078;46.428;6.256;2023-11-21T04:12:47;2.35;;;0.52;;
41333;SDS011;27078;46.428;6.256;2023-11-21T04:15:13;5.80;;;0.90;;
41333;SDS011;27078;46.428;6.256;2023-11-21T04:17:39;4.53;;;0.70;;
41333;SDS011;27078;46.428;6.256;2023-11-21T04:20:05;4.13;;;0.50;;
41333;SDS011;27078;46.428;6.256;2023-11-21T04:22:41;3.30;;;0.50;;
41333;SDS011;27078;46.428;6.256;2023-11-21T04:25:13;4.53;;;0.75;;
41333;SDS011;27078;46.428;6.256;2023-11-21T04:27:40;3.97;;;0.68;;
41333;SDS011;27078;46.428;6.256;2023-11-21T04:30:08;4.45;;;0.50;;
41333;SDS011;27078;46.428;6.256;2023-11-21T04:32:35;2.53;;;0.57;;
41333;SDS011;27078;46.428;6.256;2023-11-21T04:35:03;3.08;;;0.60;;
41333;SDS011;27078;46.428;6.256;2023-11-21T04:37:29;3.22;;;0.60;;
41333;SDS011;27078;46.428;6.256;2023-11-21T04:39:54;3.03;;;0.70;;
41333;SDS011;27078;46.428;6.256;2023-11-21T04:42:20;2.67;;;0.55;;
41333;SDS011;27078;46.428;6.256;2023-11-21T04:44:45;4.25;;;0.60;;
41333;SDS011;27078;46.428;6.256;2023-11-21T04:47:10;4.53;;;0.82;;
41333;SDS011;27078;46.428;6.256;2023-11-21T04:49:35;3.38;;;0.55;;
41333;SDS011;27078;46.428;6.256;2023-11-21T04:52:01;2.40;;;0.50;;
41333;SDS011;27078;46.428;6.256;2023-11-21T04:54:28;3.38;;;0.60;;
41333;SDS011;27078;46.428;6.256;2023-11-21T04:56:55;4.03;;;0.55;;
41333;SDS011;27078;46.428;6.256;2023-11-21T04:59:21;2.92;;;0.50;;
41333;SDS011;27078;46.428;6.256;2023-11-21T05:01:49;4.88;;;0.57;;
41333;SDS011;27078;46.428;6.256;2023-11-21T05:04:15;3.35;;;0.77;;
41333;SDS011;27078;46.428;6.256;2023-11-21T05:06:40;4.43;;;0.73;;
41333;SDS011;27078;46.428;6.256;2023-11-21T05:09:05;2.85;;;0.50;;
41333;SDS011;27078;46.428;6.256;2023-11-21T05:11:30;1.67;;;0.30;;
41333;SDS011;27078;46.428;6.256;2023-11-21T05:13:57;3.08;;;0.65;;
41333;SDS011;27078;46.428;6.256;2023-11-21T05:16:25;3.13;;;0.60;;
41333;SDS011;27078;46.428;6.256;2023-11-21T05:18:52;2.33;;;0.43;;
41333;SDS011;27078;46.428;6.256;2023-11-21T05:21:17;3.42;;;0.55;;
41333;SDS011;27078;46.428;6.256;2023-11-21T05:23:45;1.80;;;0.30;;
41333;SDS011;27078;46.428;6.256;2023-11-21T05:26:11;2.55;;;0.50;;
41333;SDS011;27078;46.428;6.256;2023-11-21T05:28:36;1.38;;;0.30;;
41333;SDS011;27078;46.428;6.256;2023-11-21T05:31:02;4.07;;;0.60;;
41333;SDS011;27078;46.428;6.256;2023-11-21T05:33:27;2.05;;;0.30;;
41333;SDS011;27078;46.428;6.256;2023-11-21T05:35:52;4.38;;;0.50;;
41333;SDS011;27078;46.428;6.256;2023-11-21T05:38:18;2.65;;;0.30;;
41333;SDS011;27078;46.428;6.256;2023-11-21T05:40:43;3.65;;;0.50;;
41333;SDS011;27078;46.428;6.256;2023-11-21T05:43:09;2.42;;;0.55;;
41333;SDS011;27078;46.428;6.256;2023-11-21T05:45:34;4.25;;;0.90;;
41333;SDS011;27078;46.428;6.256;2023-11-21T05:47:59;5.78;;;0.80;;
41333;SDS011;27078;46.428;6.256;2023-11-21T05:50:25;4.07;;;0.55;;
41333;SDS011;27078;46.428;6.256;2023-11-21T05:52:50;2.90;;;0.50;;
41333;SDS011;27078;46.428;6.256;2023-11-21T05:55:15;2.55;;;0.57;;
41333;SDS011;27078;46.428;6.256;2023-11-21T05:57:42;3.30;;;0.60;;
41333;SDS011;27078;46.428;6.256;2023-11-21T06:00:09;2.13;;;0.47;;
41333;SDS011;27078;46.428;6.256;2023-11-21T06:02:37;3.15;;;0.68;;
41333;SDS011;27078;46.428;6.256;2023-11-21T06:05:03;4.85;;;0.70;;
41333;SDS011;27078;46.428;6.256;2023-11-21T06:07:29;2.72;;;0.70;;
41333;SDS011;27078;46.428;6.256;2023-11-21T06:09:54;3.65;;;0.60;;
41333;SDS011;27078;46.428;6.256;2023-11-21T06:12:20;6.38;;;0.90;;
41333;SDS011;27078;46.428;6.256;2023-11-21T06:14:45;4.13;;;0.70;;
41333;SDS011;27078;46.428;6.256;2023-11-21T06:17:11;3.78;;;0.80;;
41333;SDS011;27078;46.428;6.256;2023-11-21T06:19:36;4.00;;;0.90;;
41333;SDS011;27078;46.428;6.256;2023-11-21T06:22:01;3.55;;;0.57;;
41333;SDS011;27078;46.428;6.256;2023-11-21T06:24:27;3.95;;;0.90;;
41333;SDS011;27078;46.428;6.256;2023-11-21T06:26:53;5.80;;;0.93;;
41333;SDS011;27078;46.428;6.256;2023-11-21T06:29:18;2.63;;;1.00;;
41333;SDS011;27078;46.428;6.256;2023-11-21T06:31:43;6.47;;;1.33;;
41333;SDS011;27078;46.428;6.256;2023-11-21T06:34:09;4.38;;;1.20;;
41333;SDS011;27078;46.428;6.256;2023-11-21T06:36:34;8.63;;;1.55;;
41333;SDS011;27078;46.428;6.256;2023-11-21T06:39:01;5.00;;;1.33;;
41333;SDS011;27078;46.428;6.256;2023-11-21T06:41:26;5.10;;;1.35;;
41333;SDS011;27078;46.428;6.256;2023-11-21T06:43:51;4.93;;;1.35;;
41333;SDS011;27078;46.428;6.256;2023-11-21T06:46:18;5.15;;;1.35;;
41333;SDS011;27078;46.428;6.256;2023-11-21T06:48:44;5.05;;;1.30;;
41333;SDS011;27078;46.428;6.256;2023-11-21T06:51:10;4.45;;;1.40;;
41333;SDS011;27078;46.428;6.256;2023-11-21T06:53:36;4.57;;;0.98;;
41333;SDS011;27078;46.428;6.256;2023-11-21T06:56:02;2.58;;;0.70;;
41333;SDS011;27078;46.428;6.256;2023-11-21T06:58:28;1.95;;;0.80;;
41333;SDS011;27078;46.428;6.256;2023-11-21T07:00:53;5.75;;;0.88;;
41333;SDS011;27078;46.428;6.256;2023-11-21T07:03:19;3.28;;;0.95;;
41333;SDS011;27078;46.428;6.256;2023-11-21T07:05:44;4.43;;;1.08;;
41333;SDS011;27078;46.428;6.256;2023-11-21T07:08:10;3.33;;;0.80;;
41333;SDS011;27078;46.428;6.256;2023-11-21T07:10:36;2.60;;;0.70;;
41333;SDS011;27078;46.428;6.256;2023-11-21T07:13:01;3.20;;;1.13;;
41333;SDS011;27078;46.428;6.256;2023-11-21T07:15:27;2.25;;;0.70;;
41333;SDS011;27078;46.428;6.256;2023-11-21T07:17:53;3.72;;;0.55;;
41333;SDS011;27078;46.428;6.256;2023-11-21T07:20:19;4.57;;;0.52;;
41333;SDS011;27078;46.428;6.256;2023-11-21T07:22:45;1.42;;;0.47;;
41333;SDS011;27078;46.428;6.256;2023-11-21T07:25:10;2.85;;;0.60;;
41333;SDS011;27078;46.428;6.256;2023-11-21T07:27:36;2.75;;;0.68;;
41333;SDS011;27078;46.428;6.256;2023-11-21T07:30:02;2.25;;;0.50;;
41333;SDS011;27078;46.428;6.256;2023-11-21T07:32:32;2.22;;;0.70;;
41333;SDS011;27078;46.428;6.256;2023-11-21T07:34:58;2.35;;;0.60;;
41333;SDS011;27078;46.428;6.256;2023-11-21T07:37:26;1.45;;;0.32;;
41333;SDS011;27078;46.428;6.256;2023-11-21T07:39:53;2.22;;;0.40;;
41333;SDS011;27078;46.428;6.256;2023-11-21T07:42:21;2.25;;;0.50;;
41333;SDS011;27078;46.428;6.256;2023-11-21T07:44:51;3.10;;;0.75;;
41333;SDS011;27078;46.428;6.256;2023-11-21T07:47:17;2.78;;;0.77;;
41333;SDS011;27078;46.428;6.256;2023-11-21T07:49:42;4.65;;;0.80;;
41333;SDS011;27078;46.428;6.256;2023-11-21T07:52:09;2.55;;;0.65;;
41333;SDS011;27078;46.428;6.256;2023-11-21T07:54:34;3.17;;;0.47;;
41333;SDS011;27078;46.428;6.256;2023-11-21T07:57:00;2.55;;;0.70;;
41333;SDS011;27078;46.428;6.256;2023-11-21T07:59:26;6.63;;;1.17;;
41333;SDS011;27078;46.428;6.256;2023-11-21T08:01:51;4.18;;;1.13;;
41333;SDS011;27078;46.428;6.256;2023-11-21T08:04:17;3.63;;;1.15;;
41333;SDS011;27078;46.428;6.256;2023-11-21T08:06:42;6.13;;;1.30;;
41333;SDS011;27078;46.428;6.256;2023-11-21T08:09:07;5.43;;;1.30;;
41333;SDS011;27078;46.428;6.256;2023-11-21T08:11:33;5.10;;;1.60;;
41333;SDS011;27078;46.428;6.256;2023-11-21T08:13:59;5.93;;;1.90;;
41333;SDS011;27078;46.428;6.256;2023-11-21T08:16:24;6.03;;;2.35;;
41333;SDS011;27078;46.428;6.256;2023-11-21T08:18:50;4.05;;;1.38;;
41333;SDS011;27078;46.428;6.256;2023-11-21T08:21:16;2.33;;;0.80;;
41333;SDS011;27078;46.428;6.256;2023-11-21T08:23:41;4.20;;;0.80;;
41333;SDS011;27078;46.428;6.256;2023-11-21T08:26:06;3.25;;;0.57;;
41333;SDS011;27078;46.428;6.256;2023-11-21T08:28:33;2.33;;;0.77;;
41333;SDS011;27078;46.428;6.256;2023-11-21T08:31:00;2.85;;;0.63;;
41333;SDS011;27078;46.428;6.256;2023-11-21T08:33:26;2.80;;;0.65;;
41333;SDS011;27078;46.428;6.256;2023-11-21T08:35:51;2.47;;;0.70;;
41333;SDS011;27078;46.428;6.256;2023-11-21T08:38:16;1.70;;;0.68;;
41333;SDS011;27078;46.428;6.256;2023-11-21T08:40:42;1.77;;;0.60;;
41333;SDS011;27078;46.428;6.256;2023-11-21T08:43:08;1.83;;;0.70;;
41333;SDS011;27078;46.428;6.256;2023-11-21T08:45:34;5.63;;;0.90;;
41333;SDS011;27078;46.428;6.256;2023-11-21T08:48:00;3.13;;;0.95;;
41333;SDS011;27078;46.428;6.256;2023-11-21T08:50:25;4.97;;;1.20;;
41333;SDS011;27078;46.428;6.256;2023-11-21T08:52:51;5.93;;;2.10;;
41333;SDS011;27078;46.428;6.256;2023-11-21T08:55:16;5.70;;;1.70;;
41333;SDS011;27078;46.428;6.256;2023-11-21T08:57:43;3.95;;;1.42;;
41333;SDS011;27078;46.428;6.256;2023-11-21T09:00:09;3.47;;;1.20;;
41333;SDS011;27078;46.428;6.256;2023-11-21T09:02:37;4.85;;;1.17;;
41333;SDS011;27078;46.428;6.256;2023-11-21T09:05:06;5.40;;;1.20;;
41333;SDS011;27078;46.428;6.256;2023-11-21T09:07:32;4.13;;;1.10;;
41333;SDS011;27078;46.428;6.256;2023-11-21T09:09:57;3.63;;;1.00;;
41333;SDS011;27078;46.428;6.256;2023-11-21T09:12:23;4.30;;;1.00;;
41333;SDS011;27078;46.428;6.256;2023-11-21T09:14:50;5.05;;;0.95;;
41333;SDS011;27078;46.428;6.256;2023-11-21T09:17:15;6.75;;;1.20;;
41333;SDS011;27078;46.428;6.256;2023-11-21T09:19:41;4.95;;;1.10;;
41333;SDS011;27078;46.428;6.256;2023-11-21T09:22:08;3.63;;;0.90;;
41333;SDS011;27078;46.428;6.256;2023-11-21T09:24:34;6.80;;;1.05;;
41333;SDS011;27078;46.428;6.256;2023-11-21T09:26:59;3.55;;;1.00;;
41333;SDS011;27078;46.428;6.256;2023-11-21T09:29:25;5.25;;;1.10;;
41333;SDS011;27078;46.428;6.256;2023-11-21T09:31:51;4.10;;;1.25;;
41333;SDS011;27078;46.428;6.256;2023-11-21T09:34:16;4.45;;;0.98;;
41333;SDS011;27078;46.428;6.256;2023-11-21T09:36:45;4.15;;;1.15;;
41333;SDS011;27078;46.428;6.256;2023-11-21T09:39:11;3.50;;;1.15;;
41333;SDS011;27078;46.428;6.256;2023-11-21T09:41:43;4.72;;;1.23;;
41333;SDS011;27078;46.428;6.256;2023-11-21T09:44:13;3.55;;;1.30;;
41333;SDS011;27078;46.428;6.256;2023-11-21T09:46:41;5.85;;;1.30;;
41333;SDS011;27078;46.428;6.256;2023-11-21T09:49:08;5.45;;;1.25;;
41333;SDS011;27078;46.428;6.256;2023-11-21T09:51:38;3.10;;;1.10;;
41333;SDS011;27078;46.428;6.256;2023-11-21T09:54:07;4.55;;;1.25;;
41333;SDS011;27078;46.428;6.256;2023-11-21T09:56:35;4.15;;;1.00;;
41333;SDS011;27078;46.428;6.256;2023-11-21T09:59:03;5.00;;;1.20;;
41333;SDS011;27078;46.428;6.256;2023-11-21T10:01:34;4.07;;;0.73;;
41333;SDS011;27078;46.428;6.256;2023-11-21T10:04:02;2.33;;;0.70;;
41333;SDS011;27078;46.428;6.256;2023-11-21T10:06:27;3.22;;;0.80;;
41333;SDS011;27078;46.428;6.256;2023-11-21T10:08:55;4.90;;;0.93;;
41333;SDS011;27078;46.428;6.256;2023-11-21T10:11:25;3.25;;;1.25;;
41333;SDS011;27078;46.428;6.256;2023-11-21T10:13:55;3.85;;;1.05;;
41333;SDS011;27078;46.428;6.256;2023-11-21T10:16:22;2.47;;;0.90;;
41333;SDS011;27078;46.428;6.256;2023-11-21T10:18:51;4.03;;;0.70;;
41333;SDS011;27078;46.428;6.256;2023-11-21T10:21:20;3.55;;;1.00;;
41333;SDS011;27078;46.428;6.256;2023-11-21T10:23:45;3.05;;;0.68;;
41333;SDS011;27078;46.428;6.256;2023-11-21T10:26:11;2.72;;;1.02;;
41333;SDS011;27078;46.428;6.256;2023-11-21T10:28:46;5.32;;;1.08;;
41333;SDS011;27078;46.428;6.256;2023-11-21T10:31:21;3.33;;;0.90;;
41333;SDS011;27078;46.428;6.256;2023-11-21T10:33:49;2.80;;;0.90;;
41333;SDS011;27078;46.428;6.256;2023-11-21T10:36:23;4.63;;;0.88;;
41333;SDS011;27078;46.428;6.256;2023-11-21T10:38:51;3.80;;;1.02;;
41333;SDS011;27078;46.428;6.256;2023-11-21T10:41:18;4.50;;;1.30;;
41333;SDS011;27078;46.428;6.256;2023-11-21T10:43:43;3.30;;;0.93;;
41333;SDS011;27078;46.428;6.256;2023-11-21T10:46:09;5.75;;;0.95;;
41333;SDS011;27078;46.428;6.256;2023-11-21T10:48:34;3.53;;;1.10;;
41333;SDS011;27078;46.428;6.256;2023-11-21T10:51:01;2.35;;;0.90;;
41333;SDS011;27078;46.428;6.256;2023-11-21T10:53:32;7.10;;;1.33;;
41333;SDS011;27078;46.428;6.256;2023-11-21T10:56:08;6.35;;;1.20;;
41333;SDS011;27078;46.428;6.256;2023-11-21T10:58:42;4.13;;;1.20;;
41333;SDS011;27078;46.428;6.256;2023-11-21T11:01:08;3.67;;;1.10;;
41333;SDS011;27078;46.428;6.256;2023-11-21T11:03:39;4.65;;;1.25;;
41333;SDS011;27078;46.428;6.256;2023-11-21T11:06:06;8.70;;;1.30;;
41333;SDS011;27078;46.428;6.256;2023-11-21T11:08:36;4.88;;;1.27;;
41333;SDS011;27078;46.428;6.256;2023-11-21T11:11:03;6.60;;;1.23;;
41333;SDS011;27078;46.428;6.256;2023-11-21T11:13:30;6.50;;;1.60;;
41333;SDS011;27078;46.428;6.256;2023-11-21T11:15:59;5.60;;;1.20;;
41333;SDS011;27078;46.428;6.256;2023-11-21T11:18:27;3.38;;;1.02;;
41333;SDS011;27078;46.428;6.256;2023-11-21T11:20:54;5.75;;;1.30;;
41333;SDS011;27078;46.428;6.256;2023-11-21T11:29:13;4.47;;;0.90;;
41333;SDS011;27078;46.428;6.256;2023-11-21T11:35:04;4.32;;;0.80;;
41333;SDS011;27078;46.428;6.256;2023-11-21T11:37:44;2.35;;;0.70;;
41333;SDS011;27078;46.428;6.256;2023-11-21T11:40:13;2.33;;;0.73;;
41333;SDS011;27078;46.428;6.256;2023-11-21T11:42:38;3.03;;;0.60;;
41333;SDS011;27078;46.428;6.256;2023-11-21T11:45:25;4.85;;;0.70;;
41333;SDS011;27078;46.428;6.256;2023-11-21T11:47:56;5.45;;;1.20;;
41333;SDS011;27078;46.428;6.256;2023-11-21T11:50:22;5.57;;;0.70;;
41333;SDS011;27078;46.428;6.256;2023-11-21T11:52:48;3.60;;;0.77;;
41333;SDS011;27078;46.428;6.256;2023-11-21T11:55:16;5.60;;;0.82;;
41333;SDS011;27078;46.428;6.256;2023-11-21T11:57:46;3.53;;;0.70;;
41333;SDS011;27078;46.428;6.256;2023-11-21T12:00:20;3.67;;;0.90;;
41333;SDS011;27078;46.428;6.256;2023-11-21T12:02:59;3.22;;;0.88;;
41333;SDS011;27078;46.428;6.256;2023-11-21T12:05:32;4.78;;;1.05;;
41333;SDS011;27078;46.428;6.256;2023-11-21T12:08:04;3.80;;;1.10;;
41333;SDS011;27078;46.428;6.256;2023-11-21T12:10:32;5.30;;;1.38;;
41333;SDS011;27078;46.428;6.256;2023-11-21T12:13:17;4.05;;;1.50;;
41333;SDS011;27078;46.428;6.256;2023-11-21T12:15:43;4.53;;;1.23;;
41333;SDS011;27078;46.428;6.256;2023-11-21T12:18:10;3.92;;;1.23;;
41333;SDS011;27078;46.428;6.256;2023-11-21T12:20:35;4.25;;;0.95;;
41333;SDS011;27078;46.428;6.256;2023-11-21T12:23:03;2.85;;;0.88;;
41333;SDS011;27078;46.428;6.256;2023-11-21T12:25:30;3.42;;;1.10;;
41333;SDS011;27078;46.428;6.256;2023-11-21T12:27:57;2.60;;;0.77;;
41333;SDS011;27078;46.428;6.256;2023-11-21T12:30:25;4.53;;;1.00;;
41333;SDS011;27078;46.428;6.256;2023-11-21T12:32:54;6.07;;;1.27;;
41333;SDS011;27078;46.428;6.256;2023-11-21T12:35:21;4.75;;;0.90;;
41333;SDS011;27078;46.428;6.256;2023-11-21T12:37:49;4.72;;;1.30;;
41333;SDS011;27078;46.428;6.256;2023-11-21T12:40:17;1.88;;;0.80;;
41333;SDS011;27078;46.428;6.256;2023-11-21T12:42:46;2.85;;;0.60;;
41333;SDS011;27078;46.428;6.256;2023-11-21T12:47:41;6.20;;;0.70;;
41333;SDS011;27078;46.428;6.256;2023-11-21T12:50:08;3.65;;;0.80;;
41333;SDS011;27078;46.428;6.256;2023-11-21T12:52:39;2.05;;;0.80;;
41333;SDS011;27078;46.428;6.256;2023-11-21T12:55:06;1.77;;;0.50;;
41333;SDS011;27078;46.428;6.256;2023-11-21T12:57:34;3.38;;;0.80;;
41333;SDS011;27078;46.428;6.256;2023-11-21T13:00:01;11.88;;;0.82;;
41333;SDS011;27078;46.428;6.256;2023-11-21T13:02:36;4.70;;;1.17;;
41333;SDS011;27078;46.428;6.256;2023-11-21T13:05:03;3.55;;;1.02;;
41333;SDS011;27078;46.428;6.256;2023-11-21T13:07:40;4.13;;;0.70;;
41333;SDS011;27078;46.428;6.256;2023-11-21T13:10:11;4.07;;;0.50;;
41333;SDS011;27078;46.428;6.256;2023-11-21T13:12:44;1.95;;;0.40;;
41333;SDS011;27078;46.428;6.256;2023-11-21T13:15:14;1.92;;;0.43;;
41333;SDS011;27078;46.428;6.256;2023-11-21T13:17:42;2.92;;;0.60;;
41333;SDS011;27078;46.428;6.256;2023-11-21T13:20:10;0.85;;;0.30;;
41333;SDS011;27078;46.428;6.256;2023-11-21T13:22:44;1.83;;;0.50;;
41333;SDS011;27078;46.428;6.256;2023-11-21T13:25:10;3.20;;;0.60;;
41333;SDS011;27078;46.428;6.256;2023-11-21T13:27:36;1.75;;;0.40;;
41333;SDS011;27078;46.428;6.256;2023-11-21T13:30:02;2.00;;;0.32;;
41333;SDS011;27078;46.428;6.256;2023-11-21T13:32:28;2.50;;;0.40;;
41333;SDS011;27078;46.428;6.256;2023-11-21T13:34:54;1.48;;;0.35;;
41333;SDS011;27078;46.428;6.256;2023-11-21T13:37:20;1.75;;;0.40;;
41333;SDS011;27078;46.428;6.256;2023-11-21T13:39:45;3.05;;;0.60;;
41333;SDS011;27078;46.428;6.256;2023-11-21T13:42:14;2.10;;;0.55;;
41333;SDS011;27078;46.428;6.256;2023-11-21T13:44:41;1.83;;;0.60;;
41333;SDS011;27078;46.428;6.256;2023-11-21T13:47:11;2.47;;;0.70;;
41333;SDS011;27078;46.428;6.256;2023-11-21T13:49:37;2.05;;;0.60;;
41333;SDS011;27078;46.428;6.256;2023-11-21T13:52:05;2.30;;;0.43;;
41333;SDS011;27078;46.428;6.256;2023-11-21T13:54:32;4.03;;;0.60;;
41333;SDS011;27078;46.428;6.256;2023-11-21T13:56:57;2.58;;;0.57;;
41333;SDS011;27078;46.428;6.256;2023-11-21T13:59:24;1.80;;;0.60;;
41333;SDS011;27078;46.428;6.256;2023-11-21T14:01:57;1.80;;;0.50;;
41333;SDS011;27078;46.428;6.256;2023-11-21T14:04:24;4.15;;;0.63;;
41333;SDS011;27078;46.428;6.256;2023-11-21T14:07:10;2.60;;;0.68;;
41333;SDS011;27078;46.428;6.256;2023-11-21T14:09:54;2.05;;;0.50;;
41333;SDS011;27078;46.428;6.256;2023-11-21T14:12:19;2.83;;;0.63;;
41333;SDS011;27078;46.428;6.256;2023-11-21T14:14:45;2.22;;;0.30;;
41333;SDS011;27078;46.428;6.256;2023-11-21T14:17:13;2.28;;;0.55;;
41333;SDS011;27078;46.428;6.256;2023-11-21T14:19:39;4.03;;;0.50;;
41333;SDS011;27078;46.428;6.256;2023-11-21T14:22:08;3.33;;;0.43;;
41333;SDS011;27078;46.428;6.256;2023-11-21T14:24:35;3.00;;;0.38;;
41333;SDS011;27078;46.428;6.256;2023-11-21T14:27:00;1.45;;;0.40;;
41333;SDS011;27078;46.428;6.256;2023-11-21T14:29:26;2.55;;;0.40;;
41333;SDS011;27078;46.428;6.256;2023-11-21T14:31:52;1.98;;;0.30;;
41333;SDS011;27078;46.428;6.256;2023-11-21T14:34:21;2.58;;;0.32;;
41333;SDS011;27078;46.428;6.256;2023-11-21T14:36:47;2.03;;;0.38;;
41333;SDS011;27078;46.428;6.256;2023-11-21T14:39:14;3.33;;;0.30;;
41333;SDS011;27078;46.428;6.256;2023-11-21T14:41:48;2.15;;;0.50;;
41333;SDS011;27078;46.428;6.256;2023-11-21T14:44:13;0.90;;;0.20;;
41333;SDS011;27078;46.428;6.256;2023-11-21T14:46:40;0.90;;;0.10;;
41333;SDS011;27078;46.428;6.256;2023-11-21T14:49:09;0.17;;;0.10;;
41333;SDS011;27078;46.428;6.256;2023-11-21T14:51:48;0.20;;;0.00;;
41333;SDS011;27078;46.428;6.256;2023-11-21T14:54:43;0.22;;;0.00;;
41333;SDS011;27078;46.428;6.256;2023-11-21T14:57:14;0.03;;;0.00;;
41333;SDS011;27078;46.428;6.256;2023-11-21T14:59:47;0.03;;;0.00;;